createdAt,value
2022-10-13T00:00:00.000Z,82.39
2022-10-13T00:15:00.000Z,82.7
2022-10-13T00:30:00.000Z,83.2
2022-10-13T00:45:00.000Z,83.01
2022-10-13T01:00:00.000Z,82.93
2022-10-13T01:15:00.000Z,82.65
2022-10-13T01:30:00.000Z,82.55
2022-10-13T02:00:00.000Z,82.74
2022-10-13T02:15:00.000Z,82.89
2022-10-13T02:30:00.000Z,83.62
2022-10-13T02:45:00.000Z,83.58
2022-10-13T03:00:00.000Z,83.47
2022-10-13T03:15:00.000Z,83.49
2022-10-13T03:30:00.000Z,83.47
2022-10-13T03:45:00.000Z,84.85
2022-10-13T04:00:00.000Z,85.55
2022-10-13T04:15:00.000Z,85.91
2022-10-13T04:30:00.000Z,86.5
2022-10-13T04:45:00.000Z,86.89
2022-10-13T05:00:00.000Z,87.02
2022-10-13T05:15:00.000Z,87.08
2022-10-13T05:30:00.000Z,86.72
2022-10-13T05:45:00.000Z,86.3
2022-10-13T06:00:00.000Z,86.14
2022-10-13T06:15:00.000Z,85.78
2022-10-13T06:30:00.000Z,84.59
2022-10-13T06:45:00.000Z,81.65
2022-10-13T07:00:00.000Z,72.5
2022-10-13T07:15:00.000Z,65.46
2022-10-13T07:30:00.000Z,65.81
2022-10-13T07:45:00.000Z,67.13
2022-10-13T08:00:00.000Z,67.63
2022-10-13T08:15:00.000Z,67.44
2022-10-13T08:30:00.000Z,66.77
2022-10-13T08:45:00.000Z,65.58
2022-10-13T09:00:00.000Z,64.33
2022-10-13T09:15:00.000Z,63.92
2022-10-13T09:30:00.000Z,62.26
2022-10-13T09:45:00.000Z,60.72
2022-10-13T10:00:00.000Z,60.61
2022-10-13T10:15:00.000Z,55.77
2022-10-13T10:30:00.000Z,54.02
2022-10-13T10:45:00.000Z,56.72
2022-10-13T11:00:00.000Z,60.07
2022-10-13T11:15:00.000Z,56.69
2022-10-13T11:30:00.000Z,56.25
2022-10-13T11:45:00.000Z,58.49
2022-10-13T12:00:00.000Z,57.98
2022-10-13T12:15:00.000Z,58.77
2022-10-13T12:30:00.000Z,60.31
2022-10-13T12:45:00.000Z,60.98
2022-10-13T13:00:00.000Z,61.23
2022-10-13T13:15:00.000Z,60.2
2022-10-13T13:30:00.000Z,61.09
2022-10-13T13:45:00.000Z,62.68
2022-10-13T14:00:00.000Z,63.42
2022-10-13T14:15:00.000Z,64.94
2022-10-13T14:30:00.000Z,65.28
2022-10-13T14:45:00.000Z,65.12
2022-10-13T15:00:00.000Z,65.66
2022-10-13T15:15:00.000Z,67.19
2022-10-13T15:30:00.000Z,68.37
2022-10-13T15:45:00.000Z,70.23
2022-10-13T16:00:00.000Z,72.29
2022-10-13T16:15:00.000Z,73.42
2022-10-13T16:30:00.000Z,75.49
2022-10-13T16:45:00.000Z,76.7
2022-10-13T17:00:00.000Z,77.85
2022-10-13T17:15:00.000Z,78.36
2022-10-13T17:30:00.000Z,78.96
2022-10-13T17:45:00.000Z,79.73
2022-10-13T18:00:00.000Z,80.24
2022-10-13T18:15:00.000Z,81.09
2022-10-13T18:30:00.000Z,81.28
2022-10-13T18:45:00.000Z,81.42
2022-10-13T19:00:00.000Z,81.67
2022-10-13T19:15:00.000Z,81.9
2022-10-13T19:30:00.000Z,82.06
2022-10-13T19:45:00.000Z,82.7
2022-10-13T20:00:00.000Z,83.18
2022-10-13T20:15:00.000Z,83.36
2022-10-13T20:30:00.000Z,83.51
2022-10-13T20:45:00.000Z,83.85
2022-10-13T21:00:00.000Z,83.39
2022-10-13T21:15:00.000Z,83.56
2022-10-13T21:30:00.000Z,83.64
2022-10-13T21:45:00.000Z,84.08
2022-10-13T22:00:00.000Z,84.83
2022-10-13T22:15:00.000Z,85.24
2022-10-13T22:30:00.000Z,85.4
2022-10-13T22:45:00.000Z,85.54
2022-10-13T23:00:00.000Z,85.81
2022-10-13T23:15:00.000Z,86.02
2022-10-13T23:30:00.000Z,85.94
2022-10-13T23:45:00.000Z,86.13
